• Join FlightAware (Why Join?)
  • Login
  • US Flag 
12:33AM EDT


 

Airport Tracker/Info


-or-


 

Live Flight TrackerFlight Track Log ✈ SWA303 ✈ 15-Apr-2013 ✈ KDEN - KIAD

Flight Track Log - Related Links

Times and Time Zones

All times are in EDT time to prevent confusion due to time zone crossing. See the SWA303 flight status page for this flight to view local times or setup timezone preferences in your user account.

Time Position Orientation Groundspeed Altitude Reporting Facility
EDT Latitude Longitude Course Direction KTS MPH feet Rate Location/Type
02:39PM 39.8833 -104.5667 84° East 191 220 7,800  Level Denver TRACON
02:40PM 39.8667 -104.4833 105° East 248 285 10,300 2,340 Climbing Denver TRACON
02:41PM 39.8667 -104.3667 90° East 330 380 12,500 2,280 Climbing Denver TRACON
02:42PM 39.8736 -104.3306 76° East 332 382 13,200 2,340 Climbing Denver Center
02:43PM 39.8722 -104.1922 91° East 388 447 15,600 2,520 Climbing Denver Center
02:44PM 39.8708 -104.0414 91° East 418 481 18,400 2,820 Climbing Denver Center
02:45PM 39.9912 -102.9968 84° East  Level Estimated
02:45PM 39.8725 -103.8689 89° East 442 509 21,400  Level Denver Center
02:46PM 39.8842 -103.7183 84° East 460 529 23,400 2,280 Climbing Denver Center
02:47PM 39.9089 -103.5164 81° East 481 554 26,200 2,280 Climbing Denver Center
02:48PM 39.9289 -103.3331 82° East 504 580 28,100 1,740 Climbing Denver Center
02:49PM 39.9497 -103.1450 82° East 519 597 29,800 1,560 Climbing Denver Center
02:50PM 39.9711 -102.9492 82° East 537 618 31,400 1,560 Climbing Denver Center
02:51PM 39.9925 -102.7503 82° East 550 633 33,100 1,740 Climbing Denver Center
02:52PM 40.0153 -102.5400 82° East 547 629 35,000 900 Climbing Denver Center
02:53PM 40.0342 -102.3544 82° East 540 621 35,000 360 Level Denver Center
02:54PM 40.0572 -102.1358 82° East 546 628 35,800 1,020 Climbing Denver Center
02:55PM 40.0772 -101.9458 82° East 552 635 37,100 1,500 Climbing Denver Center
02:56PM 40.0942 -101.7583 83° East 545 627 38,900 900 Climbing Denver Center
02:57PM 40.1161 -101.5442 82° East 537 618 39,000  Climbing Denver Center
02:58PM 40.1333 -101.3569 83° East 543 625 39,000  Level Denver Center
02:59PM 40.1539 -101.1386 83° East 544 626 39,000  Level Denver Center
03:00PM 40.1722 -100.9533 83° East 541 623 39,000  Level Denver Center
03:01PM 40.1903 -100.7369 84° East 540 621 39,000  Level Denver Center
03:02PM 40.2061 -100.5525 84° East 538 619 39,000  Level Denver Center
03:03PM 40.2078 -100.3378 89° East 533 613 39,000  Level Denver Center
03:04PM 40.2106 -100.1561 89° East 529 609 39,000  Level Denver Center
03:05PM 40.2131 -99.9414 89° East 531 611 39,000  Level Denver Center
03:06PM 40.2167 -99.7453 89° East 529 609 39,000  Level Denver Center
03:07PM 40.2181 -99.5550 89° East 526 605 39,000  Level Denver Center
03:08PM 40.2200 -99.3639 89° East 526 605 39,000  Level Denver Center
03:09PM 40.2208 -99.1736 90° East 525 604 39,000  Level Denver Center
03:10PM 40.2211 -98.9831 90° East 526 605 39,000  Level Denver Center
03:11PM 40.2219 -98.7939 90° East 522 601 39,000  Level Denver Center
03:13PM 40.2231 -98.6042 89° East 524 603 39,000  Level Denver Center
03:13PM 40.2228 -98.5294 90° East 524 603 39,000  Level Minneapolis Center
03:14PM 40.2231 -98.3761 90° East 526 605 39,000  Level Minneapolis Center
03:15PM 40.2219 -98.1472 90° East 527 606 39,000  Level Minneapolis Center
03:16PM 40.2217 -97.9544 90° East 529 609 39,000  Level Minneapolis Center
03:17PM 40.2200 -97.7608 91° East 532 612 39,000  Level Minneapolis Center
03:18PM 40.2181 -97.5672 91° East 533 613 39,000  Level Minneapolis Center
03:19PM 40.2167 -97.3731 90° East 534 615 39,000  Level Minneapolis Center
03:20PM 40.2142 -97.1389 91° East 535 616 39,000  Level Minneapolis Center
03:21PM 40.2128 -96.9447 90° East 535 616 39,000  Level Minneapolis Center
03:22PM 40.2092 -96.7500 91° East 536 617 39,000  Level Minneapolis Center
03:23PM 40.2069 -96.5553 91° East 537 618 39,000  Level Minneapolis Center
03:24PM 40.2031 -96.3597 91° East 538 619 39,000  Level Minneapolis Center
03:25PM 40.1992 -96.1644 91° East 539 620 39,000  Level Minneapolis Center
03:26PM 40.1986 -95.9686 90° East 540 621 39,000  Level Minneapolis Center
03:27PM 40.1989 -95.7294 90° East 547 629 39,000  Level Minneapolis Center
03:28PM 40.1972 -95.4969 90° East 540 621 39,000  Level Minneapolis Center
03:29PM 40.1944 -95.3011 91° East 540 621 39,000  Level Minneapolis Center
03:30PM 40.1939 -95.1058 90° East 539 620 39,000  Level Minneapolis Center
03:31PM 40.1911 -94.9117 91° East 538 619 39,000  Level Minneapolis Center
03:32PM 40.1881 -94.7192 91° East 534 615 39,000  Level Minneapolis Center
03:33PM 40.1847 -94.5158 91° East 536 617 39,000  Level Minneapolis Center
03:34PM 40.1817 -94.3225 91° East 535 616 39,000  Level Minneapolis Center
03:36PM 40.1758 -94.1050 92° East 539 620 39,000  Level Kansas City Center
03:37PM 40.1681 -93.9314 93° East 546 628 39,000  Level Kansas City Center
03:38PM 40.1642 -93.6958 91° East 545 627 39,000  Level Kansas City Center
03:39PM 40.1586 -93.4989 92° East 546 628 39,000  Level Kansas City Center
03:40PM 40.1531 -93.3017 92° East 547 629 39,000  Level Kansas City Center
03:41PM 40.1492 -93.1058 91° East 546 628 39,000  Level Kansas City Center
03:42PM 40.1433 -92.9011 92° East 542 624 39,000  Level Kansas City Center
03:43PM 40.1361 -92.6817 92° East 541 623 39,000  Level Kansas City Center
03:44PM 40.1258 -92.4947 94° East 537 618 39,000  Level Kansas City Center
03:45PM 40.1092 -92.3033 96° East 537 618 39,000 -60 Level Kansas City Center
03:46PM 40.0911 -92.1119 97° East 539 620 38,900  Descending Kansas City Center
03:47PM 40.0694 -91.8836 97° East 536 617 39,000  Climbing Kansas City Center
03:48PM 40.0508 -91.6931 97° East 535 616 39,000  Level Kansas City Center
03:49PM 40.0319 -91.5036 97° East 533 613 39,000 -60 Level Kansas City Center
03:50PM 40.0147 -91.3128 97° East 534 615 38,900  Descending Kansas City Center
03:51PM 39.9958 -91.1228 97° East 532 612 39,000  Climbing Kansas City Center
03:52PM 39.9739 -90.9194 98° East 533 613 39,000  Level Kansas City Center
03:53PM 39.9547 -90.7297 97° East 532 612 39,000  Level Kansas City Center
03:54PM 39.9347 -90.5397 98° East 530 610 39,000  Level Kansas City Center
03:55PM 39.9106 -90.3136 98° East 530 610 39,000  Level Kansas City Center
03:56PM 39.8894 -90.1256 98° East 530 610 39,000  Level Kansas City Center
03:57PM 39.8689 -89.9378 98° East 528 608 39,000  Level Kansas City Center
03:58PM 39.8478 -89.7531 98° East 524 603 39,000  Level Kansas City Center
03:59PM 39.8392 -89.5658 93° East 523 602 39,000  Level Kansas City Center
04:00PM 39.8411 -89.3767 89° East 523 602 39,000  Level Kansas City Center
04:01PM 39.8414 -89.1531 90° East 521 600 39,000  Level Kansas City Center
04:02PM 39.8411 -88.9644 90° East 523 602 39,000  Level Kansas City Center
04:03PM 39.8422 -88.7769 89° East 521 600 39,000  Level Kansas City Center
04:04PM 39.8408 -88.5917 91° East 516 594 39,000  Level Kansas City Center
04:05PM 39.8417 -88.4064 90° East 515 593 39,000  Level Kansas City Center
04:06PM 39.8417 -88.1892 90° East 517 595 39,000  Level Kansas City Center
04:07PM 39.8392 -88.1178 93° East 516 594 39,000  Level Indianapolis Center
04:08PM 39.8383 -87.9300 90° East 516 594 39,000  Level Indianapolis Center
04:09PM 39.8372 -87.7431 90° East 515 593 39,000  Level Indianapolis Center
04:10PM 39.8344 -87.5578 91° East 513 590 39,000  Level Indianapolis Center
04:11PM 39.8319 -87.3303 91° East 519 597 39,000  Level Indianapolis Center
04:12PM 39.8278 -87.1433 92° East 517 595 39,000  Level Indianapolis Center
04:13PM 39.8256 -86.9558 91° East 515 593 39,000  Level Indianapolis Center
04:14PM 39.8272 -86.7686 89° East 515 593 39,000  Level Indianapolis Center
04:15PM 39.8333 -86.5786 88° East 520 598 39,000  Level Indianapolis Center
04:16PM 39.8389 -86.3883 88° East 523 602 39,000  Level Indianapolis Center
04:17PM 39.8447 -86.1992 88° East 522 601 39,000  Level Indianapolis Center
04:18PM 39.8492 -86.0078 88° East 525 604 39,000 -60 Level Indianapolis Center
04:19PM 39.8514 -85.8117 89° East 525 604 38,900 -60 Descending Indianapolis Center
04:20PM 39.8569 -85.5886 88° East 524 603 38,900  Level Indianapolis Center
04:21PM 39.8614 -85.3986 88° East 522 601 38,900  Level Indianapolis Center
04:22PM 39.8639 -85.2086 89° East 521 600 38,900  Level Indianapolis Center
04:23PM 39.8664 -85.0186 89° East 521 600 38,900  Level Indianapolis Center
04:24PM 39.8689 -84.8286 89° East 519 597 38,900  Level Indianapolis Center
04:25PM 39.8708 -84.6406 89° East 518 596 38,900  Level Indianapolis Center
04:26PM 39.8750 -84.4525 88° East 516 594 38,900  Level Indianapolis Center
04:28PM 39.8764 -84.2344 89° East 513 590 39,000  Climbing Indianapolis Center
04:29PM 39.8767 -84.0475 90° East 512 589 38,900 -60 Descending Indianapolis Center
04:30PM 39.8775 -83.8611 90° East 511 588 38,900  Level Indianapolis Center
04:31PM 39.8775 -83.6728 90° East 514 592 38,900  Level Indianapolis Center
04:32PM 39.8792 -83.4942 89° East 516 594 39,000  Climbing Indianapolis Center
04:33PM 39.8794 -83.2814 90° East 519 597 38,900 -60 Descending Indianapolis Center
04:34PM 39.8786 -83.0936 90° East 516 594 38,900  Level Indianapolis Center
04:35PM 39.8783 -82.9039 90° East 519 597 38,900  Level Indianapolis Center
04:36PM 39.8772 -82.7156 90° East 518 596 38,900 -480 Level Indianapolis Center
04:37PM 39.8758 -82.5286 90° East 514 592 38,000 -900 Descending Indianapolis Center
04:38PM 39.8744 -82.3436 91° East 508 585 37,100 -540 Descending Indianapolis Center
04:39PM 39.8725 -82.1264 91° East 510 587 36,900 -120 Descending Indianapolis Center
04:40PM 39.8697 -81.9411 91° East 509 586 36,900  Level Indianapolis Center
04:41PM 39.8672 -81.7561 91° East 509 586 36,900  Level Indianapolis Center
04:42PM 39.8575 -81.5719 94° East 507 583 36,900  Level Indianapolis Center
04:43PM 39.8233 -81.3822 103° East 508 585 37,000 -120 Climbing Indianapolis Center
04:44PM 39.7939 -81.2022 102° East 507 583 36,700 -600 Descending Indianapolis Center
04:45PM 39.7642 -81.0153 102° East 504 580 35,800 -960 Descending Cleveland Center
04:46PM 39.7333 -80.8369 103° East 504 580 34,800 -960 Descending Cleveland Center
04:48PM 39.6667 -80.4764 103° East 519 597 33,000 -960 Descending Indianapolis Center
04:49PM 39.6572 -80.4003 99° East 513 590 32,600 -1,080 Descending Washington Center
04:50PM 39.6264 -80.2311 103° East 501 577 31,600 -960 Descending Washington Center
04:51PM 39.5975 -80.0597 102° East 493 567 30,700 -960 Descending Washington Center
04:52PM 39.5642 -79.8853 104° East 493 567 29,700 -1,020 Descending Washington Center
04:53PM 39.5347 -79.7139 103° East 493 567 28,700 -1,260 Descending Washington Center
04:54PM 39.5050 -79.5481 103° East 493 567 27,200 -900 Descending Washington Center
04:55PM 39.4747 -79.3853 103° East 479 551 27,000 -900 Descending Washington Center
04:56PM 39.4400 -79.2247 106° East 473 544 25,500 -2,100 Descending Washington Center
04:57PM 39.4133 -79.0703 103° East 455 524 22,900 -2,580 Descending Washington Center
04:58PM 39.3844 -78.9158 104° East 449 517 20,500 -2,340 Descending Washington Center
04:59PM 39.3592 -78.7697 103° East 434 499 18,300 -2,100 Descending Washington Center
05:00PM 39.3336 -78.6317 103° East 411 473 16,400 -2,100 Descending Washington Center
05:01PM 39.3078 -78.4939 104° East 394 453 14,200 -2,160 Descending Washington Center
05:02PM 39.2817 -78.3669 105° East 379 436 12,100 -1,680 Descending Washington Center
05:03PM 39.2511 -78.2478 108° East 365 420 10,900 -1,020 Descending Washington Center
05:04PM 39.2325 -78.1317 102° East 327 376 10,100 -900 Descending Washington Center
05:05PM 39.2200 -78.0375 100° East 290 334 9,100 -1,200 Descending Washington Center
05:06PM 39.2072 -77.9433 100° East 270 311 7,700 -1,380 Descending Washington Center
05:07PM 39.2153 -77.8472 84° East 265 305 6,400 -1,320 Descending Washington Center
05:08PM 39.2253 -77.7592 82° East 258 297 5,100 -1,260 Descending Washington Center
05:09PM 39.2206 -77.6758 94° East 245 282 3,900 -1,260 Descending Washington Center
05:09PM 39.2000 -77.6167 114° Southeast 231 266 3,000 -540 Descending Potomac TRACON
05:10PM 39.1833 -77.5333 104° East 228 262 3,000 -300 Level Potomac TRACON
05:11PM 39.1333 -77.5000 153° Southeast 200 230 2,400 -540 Descending Potomac TRACON
05:12PM 39.0833 -77.4667 153° Southeast 204 235 2,000 -420 Descending Potomac TRACON
05:13PM 39.0333 -77.4667 180° South 165 190 1,700 -600 Descending Potomac TRACON
05:14PM 39.0000 -77.4667 180° South 131 151 900 -780 Descending Potomac TRACON
05:16PM 38.9474 -77.4599 165° South  Level Estimated
05:23PM 38.9474 -77.4599 165° South  Level Estimated
05:24PM 38.9474 -77.4599 165° South  Level Estimated